Time;durP1;ratioP1;P1;durP2;ratioP2;P2;SDS_P1;SDS_P2;PMS_P1;PMS_P2;Temp;Humidity;BMP_temperature;BMP_pressure;BME280_temperature;BME280_humidity;BME280_pressure;Samples;Min_cycle;Max_cycle;Signal;HPM_P1;HPM_P2
2023/05/02 00:01:03;;;;;;;0.57;0.57;;;;;;;13.83;100.00;99908.22;5052022;28;20668;-58
2023/05/02 00:03:30;;;;;;;0.60;0.60;;;;;;;13.87;100.00;99908.97;5051713;28;20569;-58
2023/05/02 00:05:57;;;;;;;0.50;0.50;;;;;;;13.88;100.00;99906.34;5051752;28;20197;-58
2023/05/02 00:08:24;;;;;;;0.60;0.60;;;;;;;13.89;100.00;99907.19;5051690;28;20756;-58
2023/05/02 00:10:52;;;;;;;1.03;1.03;;;;;;;13.89;100.00;99917.50;5051602;28;20209;-58
2023/05/02 00:13:19;;;;;;;0.60;0.60;;;;;;;13.86;100.00;99912.47;5052164;28;20246;-58
2023/05/02 00:15:46;;;;;;;0.50;0.50;;;;;;;13.89;100.00;99914.94;5048601;28;20197;-59
2023/05/02 00:18:12;;;;;;;0.50;0.50;;;;;;;13.91;100.00;99916.53;5052236;28;20205;-58
2023/05/02 00:20:40;;;;;;;0.47;0.47;;;;;;;13.92;100.00;99912.25;5051918;28;20193;-58
2023/05/02 00:23:06;;;;;;;0.57;0.57;;;;;;;13.94;99.80;99920.75;5051680;28;20217;-59
2023/05/02 00:25:33;;;;;;;0.50;0.50;;;;;;;13.96;99.46;99921.53;5051485;28;20201;-59
2023/05/02 00:28:01;;;;;;;0.40;0.40;;;;;;;13.96;99.48;99924.94;5050903;28;20619;-58
2023/05/02 00:30:28;;;;;;;0.50;0.50;;;;;;;13.95;98.88;99923.28;5048548;28;20262;-59
2023/05/02 00:32:54;;;;;;;0.70;0.70;;;;;;;13.98;99.12;99927.47;5051294;28;20198;-58
2023/05/02 00:35:21;;;;;;;0.60;0.60;;;;;;;13.97;98.63;99933.53;5051382;28;20204;-58
2023/05/02 00:37:48;;;;;;;0.50;0.50;;;;;;;13.95;98.36;99931.00;5050925;28;20529;-58
2023/05/02 00:40:15;;;;;;;0.57;0.57;;;;;;;13.89;98.42;99940.69;5051261;28;20258;-58
2023/05/02 00:42:41;;;;;;;0.60;0.60;;;;;;;13.85;98.45;99931.38;5051200;28;20271;-58
2023/05/02 00:45:11;;;;;;;0.50;0.50;;;;;;;13.87;98.06;99939.91;5050883;28;20648;-58
2023/05/02 00:47:38;;;;;;;0.60;0.60;;;;;;;13.88;97.64;99941.59;5051731;28;20664;-58
2023/05/02 00:50:06;;;;;;;0.50;0.50;;;;;;;13.87;97.45;99937.31;5050209;28;20201;-58
2023/05/02 00:52:33;;;;;;;0.60;0.60;;;;;;;13.85;97.36;99944.28;5051016;28;20254;-58
2023/05/02 00:55:02;;;;;;;0.50;0.50;;;;;;;13.81;97.34;99940.09;5049016;28;20211;-58
2023/05/02 00:57:28;;;;;;;0.60;0.60;;;;;;;13.81;97.27;99946.09;5048251;28;20240;-58
2023/05/02 00:59:56;;;;;;;0.40;0.40;;;;;;;13.77;97.04;99943.69;5050719;28;20286;-59
2023/05/02 01:02:34;;;;;;;0.60;0.60;;;;;;;13.75;96.69;99945.47;5050930;28;20225;-58
2023/05/02 01:05:10;;;;;;;0.63;0.63;;;;;;;13.64;96.28;99944.09;5050457;28;20293;-58
2023/05/02 01:08:01;;;;;;;0.50;0.50;;;;;;;13.39;97.13;99940.66;5047293;28;20208;-58
2023/05/02 01:10:37;;;;;;;0.50;0.50;;;;;;;13.26;97.12;99941.97;5050690;28;20204;-58
2023/05/02 01:13:09;;;;;;;0.60;0.60;;;;;;;13.08;98.08;99947.69;5049068;28;20242;-57
2023/05/02 01:15:38;;;;;;;0.60;0.60;;;;;;;12.91;99.06;99949.94;5050683;28;20270;-58
2023/05/02 01:18:10;;;;;;;0.50;0.50;;;;;;;12.77;99.29;99927.19;5050018;28;20240;-58
2023/05/02 01:20:40;;;;;;;0.50;0.50;;;;;;;12.93;99.00;99958.44;5050808;28;20197;-58
2023/05/02 01:23:15;;;;;;;0.53;0.53;;;;;;;12.95;98.92;99954.94;5050285;28;20244;-58
2023/05/02 01:25:56;;;;;;;0.50;0.50;;;;;;;12.97;98.32;99949.72;5047493;28;20546;-58
2023/05/02 01:28:40;;;;;;;0.53;0.53;;;;;;;12.86;98.23;99936.38;5049018;28;20583;-58
2023/05/02 01:31:09;;;;;;;0.80;0.80;;;;;;;12.98;97.46;99954.00;5045236;28;20204;-59
2023/05/02 01:33:38;;;;;;;0.50;0.50;;;;;;;12.87;96.54;99949.16;5048338;28;20193;-58
2023/05/02 01:36:07;;;;;;;0.60;0.60;;;;;;;12.73;96.45;99937.63;5050064;28;20259;-58
2023/05/02 01:38:35;;;;;;;0.73;0.73;;;;;;;12.73;96.50;99950.50;5044944;28;20205;-58
2023/05/02 01:41:06;;;;;;;0.60;0.60;;;;;;;12.62;96.87;99954.22;5050850;28;20193;-58
2023/05/02 01:43:35;;;;;;;0.83;0.83;;;;;;;12.63;96.69;99950.75;5047227;28;20294;-58
2023/05/02 01:46:05;;;;;;;0.40;0.40;;;;;;;12.60;96.67;99950.03;5050246;28;20196;-59
2023/05/02 01:48:34;;;;;;;0.50;0.50;;;;;;;12.55;96.63;99952.72;5050293;28;20211;-58
2023/05/02 01:51:02;;;;;;;0.50;0.50;;;;;;;12.51;96.72;99951.13;5050800;28;20677;-58
2023/05/02 01:53:33;;;;;;;0.40;0.40;;;;;;;12.51;96.20;99955.41;5044150;28;20211;-58
2023/05/02 01:56:01;;;;;;;0.70;0.70;;;;;;;12.54;96.78;99961.31;5049273;28;20204;-58
2023/05/02 01:58:30;;;;;;;0.50;0.50;;;;;;;12.58;96.46;99956.91;5049319;28;20200;-59
2023/05/02 02:01:00;;;;;;;0.50;0.50;;;;;;;12.58;96.43;99957.78;5049837;28;20556;-58
2023/05/02 02:03:29;;;;;;;0.50;0.50;;;;;;;12.62;96.18;99969.66;5049462;28;20695;-59
2023/05/02 02:05:59;;;;;;;0.47;0.47;;;;;;;12.67;96.53;99966.09;5049918;28;20660;-59
2023/05/02 02:08:26;;;;;;;0.50;0.50;;;;;;;12.70;96.26;99969.41;5049347;28;20342;-59
2023/05/02 02:10:59;;;;;;;0.50;0.50;;;;;;;12.70;96.11;99966.84;5048793;28;20196;-59
2023/05/02 02:13:31;;;;;;;0.50;0.50;;;;;;;12.73;96.54;99966.75;5049978;28;20200;-59
2023/05/02 02:16:01;;;;;;;0.50;0.50;;;;;;;12.67;96.58;99966.09;5050418;28;20216;-58
2023/05/02 02:18:29;;;;;;;0.50;0.50;;;;;;;12.62;96.34;99959.38;5050231;28;20197;-58
2023/05/02 02:20:59;;;;;;;0.50;0.50;;;;;;;12.56;96.41;99967.28;5048736;28;20243;-59
2023/05/02 02:23:28;;;;;;;0.67;0.67;;;;;;;12.50;96.51;99958.91;5049897;28;20256;-58
2023/05/02 02:25:56;;;;;;;0.60;0.60;;;;;;;12.41;97.02;99959.97;5049507;28;20223;-59
2023/05/02 02:28:23;;;;;;;0.50;0.50;;;;;;;12.43;97.07;99955.66;5049968;28;20720;-59
2023/05/02 02:30:50;;;;;;;0.60;0.60;;;;;;;12.44;96.67;99959.88;5049347;28;20200;-58
2023/05/02 02:33:17;;;;;;;0.93;0.93;;;;;;;12.46;96.56;99968.41;5049999;28;20197;-58
2023/05/02 02:35:53;;;;;;;0.50;0.50;;;;;;;12.46;96.87;99962.44;5048824;28;20738;-59
2023/05/02 02:38:30;;;;;;;0.50;0.50;;;;;;;12.26;96.42;99950.13;5048601;28;20660;-59
2023/05/02 02:41:01;;;;;;;0.60;0.60;;;;;;;12.35;96.19;99970.44;5053698;28;20239;-58
2023/05/02 02:43:36;;;;;;;0.70;0.70;;;;;;;12.34;96.48;99968.75;5054124;28;20227;-59
2023/05/02 02:46:14;;;;;;;0.50;0.50;;;;;;;12.34;96.14;99973.88;5053187;28;20200;-58
2023/05/02 02:48:49;;;;;;;0.43;0.43;;;;;;;12.24;95.77;99980.19;5053896;28;20200;-59
2023/05/02 02:51:25;;;;;;;0.50;0.50;;;;;;;12.15;95.75;99977.03;5052031;28;20282;-59
2023/05/02 02:54:01;;;;;;;0.80;0.80;;;;;;;12.09;96.11;99972.88;5053528;28;20197;-59
2023/05/02 02:56:36;;;;;;;0.60;0.60;;;;;;;12.02;96.19;99966.22;5047363;28;20211;-58
2023/05/02 02:59:06;;;;;;;0.70;0.70;;;;;;;12.02;96.34;99968.78;5053046;28;20212;-58
2023/05/02 03:01:35;;;;;;;0.40;0.40;;;;;;;11.92;97.03;99975.09;5053767;28;20197;-58
2023/05/02 03:04:05;;;;;;;0.60;0.60;;;;;;;11.88;97.78;99982.03;5047112;28;20283;-58
2023/05/02 03:06:32;;;;;;;0.50;0.50;;;;;;;11.89;97.29;99978.56;5046616;28;20192;-58
2023/05/02 03:09:00;;;;;;;0.53;0.53;;;;;;;11.87;97.27;99976.91;5053116;28;20568;-59
2023/05/02 03:11:27;;;;;;;0.40;0.40;;;;;;;11.81;97.47;99977.94;5046989;28;20200;-58
2023/05/02 03:13:54;;;;;;;0.50;0.50;;;;;;;11.78;97.62;99983.16;5053698;28;20572;-58
2023/05/02 03:16:35;;;;;;;0.57;0.57;;;;;;;11.72;97.38;99979.88;5052508;28;21172;-58
2023/05/02 03:19:03;;;;;;;0.60;0.60;;;;;;;11.69;97.42;99974.81;5050175;28;20225;-58
2023/05/02 03:21:30;;;;;;;0.50;0.50;;;;;;;11.62;96.50;99986.94;5050799;28;20223;-58
2023/05/02 03:23:58;;;;;;;0.50;0.50;;;;;;;11.62;96.37;99986.09;5053251;28;20223;-58
2023/05/02 03:26:26;;;;;;;0.57;0.57;;;;;;;11.63;96.91;99992.94;5052907;28;20205;-58
2023/05/02 03:28:52;;;;;;;0.40;0.40;;;;;;;11.66;96.85;99996.28;5047740;28;20205;-58
2023/05/02 03:31:20;;;;;;;0.50;0.50;;;;;;;11.67;97.51;99994.53;5048521;28;20208;-59
2023/05/02 03:33:46;;;;;;;0.47;0.47;;;;;;;11.65;97.12;99996.28;5052272;28;20641;-58
2023/05/02 03:36:13;;;;;;;1.00;1.00;;;;;;;11.72;97.45;100008.13;5052308;28;20262;-58
2023/05/02 03:38:40;;;;;;;0.60;0.60;;;;;;;11.77;97.31;100011.41;5047579;28;20673;-58
2023/05/02 03:41:07;;;;;;;0.80;0.80;;;;;;;11.71;96.57;99991.88;5052511;28;20197;-58
2023/05/02 03:43:35;;;;;;;0.60;0.60;;;;;;;11.85;96.18;100014.66;5051888;28;20266;-59
2023/05/02 03:46:06;;;;;;;0.60;0.60;;;;;;;11.89;96.61;100018.84;5050951;28;20311;-59
2023/05/02 03:48:33;;;;;;;0.70;0.70;;;;;;;11.90;96.50;100023.94;5048060;28;20262;-58
2023/05/02 03:51:00;;;;;;;0.50;0.50;;;;;;;11.92;96.04;100023.91;5046069;28;20192;-59
2023/05/02 03:53:27;;;;;;;0.47;0.47;;;;;;;11.95;95.31;100023.81;5047029;28;20694;-59
2023/05/02 03:55:54;;;;;;;0.57;0.57;;;;;;;11.91;94.54;100029.91;5044627;28;20314;-58
2023/05/02 03:58:21;;;;;;;1.13;1.13;;;;;;;11.88;94.95;100027.41;5042694;28;20251;-59
2023/05/02 04:00:49;;;;;;;0.70;0.70;;;;;;;11.97;95.25;100027.19;5049334;28;20553;-59
2023/05/02 04:03:15;;;;;;;0.70;0.70;;;;;;;12.01;94.92;100028.78;5048802;28;20581;-59
2023/05/02 04:05:42;;;;;;;0.47;0.47;;;;;;;12.08;94.95;100033.72;5050325;28;20672;-58
2023/05/02 04:08:09;;;;;;;0.60;0.60;;;;;;;12.10;94.63;100025.97;5050979;28;20263;-59
2023/05/02 04:10:36;;;;;;;0.50;0.50;;;;;;;12.27;95.09;100036.66;5050634;28;20236;-58
2023/05/02 04:13:03;;;;;;;0.60;0.60;;;;;;;12.37;94.74;100040.69;5050662;28;20205;-58
2023/05/02 04:15:31;;;;;;;0.60;0.60;;;;;;;12.41;93.44;100047.41;5051501;28;20208;-58
2023/05/02 04:17:59;;;;;;;0.50;0.50;;;;;;;12.32;92.05;100027.09;5048460;28;20205;-59
2023/05/02 04:20:26;;;;;;;0.67;0.67;;;;;;;12.46;92.38;100048.13;5051908;28;20208;-58
2023/05/02 04:22:53;;;;;;;0.60;0.60;;;;;;;12.61;92.55;100054.56;5051747;28;20208;-59
2023/05/02 04:25:20;;;;;;;0.50;0.50;;;;;;;12.78;92.06;100052.38;5050559;28;20251;-58
2023/05/02 04:27:47;;;;;;;0.60;0.60;;;;;;;12.98;90.89;100059.53;5050808;28;20463;-58
2023/05/02 04:30:14;;;;;;;0.63;0.63;;;;;;;13.11;88.50;100046.28;5050910;28;20201;-58
2023/05/02 04:32:40;;;;;;;0.80;0.80;;;;;;;13.29;88.29;100054.31;5048578;28;20630;-58
2023/05/02 04:35:09;;;;;;;2.13;0.83;;;;;;;13.49;87.84;100062.25;5050842;28;20215;-59
2023/05/02 04:37:36;;;;;;;0.67;0.67;;;;;;;13.73;85.85;100065.81;5051531;28;20197;-59
2023/05/02 04:40:03;;;;;;;0.50;0.50;;;;;;;13.95;85.39;100064.22;5051371;28;20192;-59
2023/05/02 04:42:30;;;;;;;0.40;0.40;;;;;;;14.21;84.06;100059.03;5046383;28;20254;-59
2023/05/02 04:44:57;;;;;;;0.80;0.80;;;;;;;14.40;83.02;100054.94;5050471;28;20279;-59
2023/05/02 04:47:23;;;;;;;0.60;0.60;;;;;;;14.60;80.94;100056.81;5050894;28;20197;-59
2023/05/02 04:49:50;;;;;;;0.40;0.40;;;;;;;14.76;79.39;100060.50;5044031;28;20199;-59
2023/05/02 04:52:18;;;;;;;0.50;0.50;;;;;;;15.00;80.06;100057.00;5049914;28;20357;-59
2023/05/02 04:54:45;;;;;;;0.60;0.60;;;;;;;15.18;79.54;100053.75;5051048;28;20198;-59
2023/05/02 04:57:11;;;;;;;0.50;0.50;;;;;;;15.36;76.71;100070.25;5048014;28;20266;-59
2023/05/02 04:59:38;;;;;;;0.40;0.40;;;;;;;15.48;76.32;100072.38;5045790;28;20236;-59
2023/05/02 05:02:06;;;;;;;0.50;0.50;;;;;;;15.70;76.02;100065.44;5049314;28;20204;-59
2023/05/02 05:04:33;;;;;;;1.23;1.23;;;;;;;15.92;75.55;100075.78;5044931;28;20604;-59
2023/05/02 05:07:00;;;;;;;0.60;0.60;;;;;;;16.02;73.29;100071.06;5049002;28;20212;-59
2023/05/02 05:09:28;;;;;;;0.50;0.50;;;;;;;16.21;74.11;100071.97;5047719;28;20671;-59
2023/05/02 05:11:55;;;;;;;0.70;0.70;;;;;;;16.42;73.04;100070.19;5047381;28;20207;-59
2023/05/02 05:14:21;;;;;;;0.50;0.50;;;;;;;16.43;72.30;100067.56;5046428;28;20204;-63
2023/05/02 05:16:48;;;;;;;0.53;0.53;;;;;;;16.54;71.62;100065.31;5049562;28;20261;-65
2023/05/02 05:19:15;;;;;;;0.60;0.60;;;;;;;16.65;70.95;100070.91;5047697;28;20234;-66
2023/05/02 05:21:41;;;;;;;0.50;0.50;;;;;;;16.66;69.88;100074.34;5049016;28;20204;-66
2023/05/02 05:24:08;;;;;;;0.77;0.77;;;;;;;16.26;67.41;100082.97;5049342;28;20221;-65
2023/05/02 05:26:37;;;;;;;0.60;0.60;;;;;;;15.79;71.20;100071.16;5046829;28;20208;-65
2023/05/02 05:29:04;;;;;;;0.60;0.60;;;;;;;15.87;73.62;100069.09;5047029;28;20350;-66
2023/05/02 05:31:30;;;;;;;0.50;0.50;;;;;;;15.87;70.32;100045.81;5049590;28;20553;-66
2023/05/02 05:33:57;;;;;;;0.70;0.70;;;;;;;16.06;69.03;100080.34;5047625;28;20589;-65
2023/05/02 05:36:24;;;;;;;0.67;0.67;;;;;;;16.23;70.24;100085.69;5049996;28;20281;-66
2023/05/02 05:38:51;;;;;;;0.60;0.60;;;;;;;16.07;69.74;100079.47;5050647;28;20205;-65
2023/05/02 05:41:17;;;;;;;0.67;0.67;;;;;;;16.31;69.37;100093.97;5049671;28;20215;-59
2023/05/02 05:43:45;;;;;;;0.57;0.57;;;;;;;16.61;71.10;100079.72;5050091;28;20270;-59
2023/05/02 05:46:12;;;;;;;0.70;0.70;;;;;;;16.83;67.52;100089.13;5048467;28;20697;-59
2023/05/02 05:48:39;;;;;;;0.60;0.60;;;;;;;17.00;67.16;100099.56;5048181;28;20257;-59
2023/05/02 05:51:06;;;;;;;0.50;0.50;;;;;;;17.03;66.49;100099.41;5047615;28;20196;-59
2023/05/02 05:53:33;;;;;;;0.60;0.60;;;;;;;16.95;65.14;100098.94;5047019;28;20557;-59
2023/05/02 05:56:07;;;;;;;1.23;1.13;;;;;;;17.03;64.56;100104.59;5048682;28;20200;-59
2023/05/02 05:58:34;;;;;;;0.40;0.40;;;;;;;17.33;64.31;100108.38;5048196;28;20741;-59
2023/05/02 06:01:02;;;;;;;0.60;0.60;;;;;;;17.14;64.41;100098.03;5048029;28;20261;-59
2023/05/02 06:03:29;;;;;;;0.60;0.60;;;;;;;17.52;67.61;100108.38;5048738;28;20270;-59
2023/05/02 06:05:56;;;;;;;0.50;0.50;;;;;;;17.62;62.57;100105.31;5047025;28;20205;-58
2023/05/02 06:08:22;;;;;;;0.40;0.40;;;;;;;17.55;62.36;100108.22;5046747;28;20236;-60
2023/05/02 06:10:49;;;;;;;1.70;0.70;;;;;;;17.55;63.86;100103.91;5045808;28;20687;-59
2023/05/02 06:13:16;;;;;;;0.40;0.40;;;;;;;17.54;62.17;100065.91;5048957;28;20205;-59
2023/05/02 06:15:42;;;;;;;0.60;0.60;;;;;;;17.98;62.60;100101.84;5052769;28;20220;-59
2023/05/02 06:18:10;;;;;;;0.40;0.40;;;;;;;17.83;60.49;100104.25;5052906;28;20200;-59
2023/05/02 06:20:37;;;;;;;0.50;0.50;;;;;;;17.93;58.80;100109.03;5051353;28;20587;-58
2023/05/02 06:23:04;;;;;;;0.33;0.33;;;;;;;17.60;60.17;100103.69;5047442;28;20643;-58
2023/05/02 06:25:32;;;;;;;0.57;0.57;;;;;;;17.80;61.20;100099.22;5050244;28;20221;-59
2023/05/02 06:27:59;;;;;;;0.40;0.40;;;;;;;18.08;59.04;100100.47;5046144;28;20604;-59
2023/05/02 06:30:25;;;;;;;0.60;0.60;;;;;;;18.00;58.43;100095.66;5048813;28;20736;-59
2023/05/02 06:32:52;;;;;;;0.53;0.53;;;;;;;18.22;59.22;100092.84;5047911;28;20205;-60
2023/05/02 06:35:20;;;;;;;0.50;0.50;;;;;;;18.27;57.35;100094.28;5050716;28;20723;-59
2023/05/02 06:37:47;;;;;;;0.50;0.50;;;;;;;18.10;58.45;100090.84;5051532;28;20211;-59
2023/05/02 06:40:14;;;;;;;0.50;0.50;;;;;;;18.17;58.57;100085.28;5053625;28;20706;-59
2023/05/02 06:42:40;;;;;;;0.40;0.40;;;;;;;18.30;58.32;100090.69;5053478;28;20210;-59
2023/05/02 06:45:08;;;;;;;0.50;0.50;;;;;;;18.28;58.30;100087.34;5053160;28;20218;-59
2023/05/02 06:47:34;;;;;;;0.50;0.50;;;;;;;18.29;57.40;100079.47;5053895;28;20262;-59
2023/05/02 06:50:02;;;;;;;0.43;0.43;;;;;;;18.58;57.44;100088.38;5051746;28;20206;-59
2023/05/02 06:52:30;;;;;;;0.40;0.40;;;;;;;18.41;56.40;100084.97;5053410;28;20670;-59
2023/05/02 06:54:56;;;;;;;0.60;0.60;;;;;;;18.25;57.13;100084.91;5049321;28;20208;-65
2023/05/02 06:57:24;;;;;;;0.50;0.50;;;;;;;18.31;58.75;100080.25;5046365;28;20221;-63
2023/05/02 06:59:51;;;;;;;5.97;1.17;;;;;;;18.43;56.52;100088.31;5048429;28;20264;-65
2023/05/02 07:02:17;;;;;;;0.60;0.60;;;;;;;18.43;57.53;100081.34;5050308;28;20262;-59
2023/05/02 07:04:44;;;;;;;0.50;0.50;;;;;;;18.36;57.79;100082.59;5049173;28;20236;-59
2023/05/02 07:07:11;;;;;;;0.70;0.70;;;;;;;18.49;57.26;100070.66;5048762;28;20692;-59
2023/05/02 07:09:39;;;;;;;0.50;0.50;;;;;;;18.76;57.73;100076.19;5050277;28;20212;-59
2023/05/02 07:12:06;;;;;;;0.50;0.50;;;;;;;18.86;56.27;100091.22;5052292;28;20637;-59
2023/05/02 07:14:32;;;;;;;0.60;0.60;;;;;;;19.01;55.28;100080.91;5050737;28;20251;-61
2023/05/02 07:16:59;;;;;;;0.50;0.50;;;;;;;19.29;56.49;100081.09;5052515;28;20755;-59
2023/05/02 07:19:26;;;;;;;0.40;0.40;;;;;;;19.30;54.02;100077.56;5049347;28;20230;-59
2023/05/02 07:21:52;;;;;;;0.30;0.30;;;;;;;19.37;54.17;100073.72;5048116;28;20203;-59
2023/05/02 07:24:19;;;;;;;0.47;0.47;;;;;;;19.53;54.19;100076.34;5046235;28;20225;-59
2023/05/02 07:26:47;;;;;;;0.57;0.57;;;;;;;19.45;55.04;100076.75;5051647;28;20663;-59
2023/05/02 07:29:14;;;;;;;0.40;0.40;;;;;;;19.74;52.65;100081.16;5052845;28;20201;-59
2023/05/02 07:31:40;;;;;;;0.40;0.40;;;;;;;19.86;53.25;100077.88;5052494;28;20624;-59
2023/05/02 07:34:07;;;;;;;0.43;0.43;;;;;;;20.15;54.58;100083.16;5051246;28;20287;-59
2023/05/02 07:36:34;;;;;;;0.40;0.40;;;;;;;20.20;51.76;100075.88;5049671;28;20222;-62
2023/05/02 07:39:01;;;;;;;0.40;0.40;;;;;;;20.38;50.76;100077.47;5052051;28;20209;-60
2023/05/02 07:41:27;;;;;;;0.60;0.60;;;;;;;20.20;49.44;100074.13;5046517;28;20659;-60
2023/05/02 07:43:56;;;;;;;0.60;0.60;;;;;;;20.34;50.54;100060.34;5044737;28;20213;-60
2023/05/02 07:46:23;;;;;;;0.67;0.67;;;;;;;20.44;48.94;100069.28;5049603;28;20203;-66
2023/05/02 07:48:50;;;;;;;0.40;0.40;;;;;;;20.66;50.56;100064.44;5048261;28;20273;-66
2023/05/02 07:51:19;;;;;;;0.50;0.50;;;;;;;20.82;45.92;100059.13;5049420;28;20208;-66
2023/05/02 07:53:45;;;;;;;0.40;0.40;;;;;;;20.39;44.96;100066.09;5049695;28;20634;-65
2023/05/02 07:56:12;;;;;;;0.37;0.37;;;;;;;20.27;46.02;100048.59;5049315;28;20205;-65
2023/05/02 07:58:39;;;;;;;0.40;0.40;;;;;;;20.35;45.99;100054.19;5051049;28;20233;-65
2023/05/02 08:01:07;;;;;;;0.87;0.87;;;;;;;20.64;46.31;100060.25;5044907;28;20212;-66
2023/05/02 08:03:34;;;;;;;0.43;0.43;;;;;;;20.74;43.88;100049.16;5050251;28;20923;-66
2023/05/02 08:06:02;;;;;;;0.30;0.30;;;;;;;20.83;43.34;100061.66;5050438;28;20217;-66
2023/05/02 08:08:29;;;;;;;0.40;0.40;;;;;;;20.70;43.13;100060.72;5050775;28;20203;-66
2023/05/02 08:10:56;;;;;;;0.50;0.50;;;;;;;20.73;44.08;100055.31;5051152;28;20208;-66
2023/05/02 08:13:23;;;;;;;0.57;0.57;;;;;;;20.85;42.20;100059.78;5046352;28;20209;-66
2023/05/02 08:15:49;;;;;;;0.30;0.30;;;;;;;20.81;40.87;100053.06;5049399;28;20289;-65
2023/05/02 08:18:17;;;;;;;0.40;0.40;;;;;;;20.93;42.64;100052.31;5045704;28;20639;-65
2023/05/02 08:20:44;;;;;;;0.40;0.40;;;;;;;20.94;41.62;100051.38;5049678;28;20257;-65
2023/05/02 08:23:11;;;;;;;0.50;0.50;;;;;;;21.09;41.04;100048.75;5049924;28;20210;-65
2023/05/02 08:25:37;;;;;;;0.40;0.40;;;;;;;21.11;40.58;100046.91;5047828;28;20228;-66
2023/05/02 08:28:04;;;;;;;0.50;0.50;;;;;;;21.07;39.76;100042.78;5044724;28;20691;-66
2023/05/02 08:30:31;;;;;;;0.40;0.40;;;;;;;21.24;41.18;100045.19;5048573;28;20224;-67
2023/05/02 08:32:58;;;;;;;0.40;0.40;;;;;;;21.40;40.29;100040.66;5045826;28;20625;-66
2023/05/02 08:35:26;;;;;;;0.30;0.30;;;;;;;21.47;39.31;100036.72;5048593;28;20678;-66
2023/05/02 08:37:52;;;;;;;0.40;0.40;;;;;;;21.52;40.68;100034.66;5047529;28;20228;-65
2023/05/02 08:40:22;;;;;;;0.50;0.50;;;;;;;21.62;38.90;100043.56;5047931;28;20302;-66
2023/05/02 08:42:48;;;;;;;0.40;0.40;;;;;;;21.56;37.57;100046.56;5047807;28;20208;-66
2023/05/02 08:45:15;;;;;;;0.50;0.50;;;;;;;21.70;39.39;100033.47;5047490;28;20235;-66
2023/05/02 08:47:43;;;;;;;0.83;0.70;;;;;;;21.75;37.71;100031.38;5046421;28;20683;-66
2023/05/02 08:50:10;;;;;;;0.30;0.30;;;;;;;21.79;37.80;100024.19;5047590;28;20384;-66
2023/05/02 08:52:39;;;;;;;0.50;0.50;;;;;;;21.75;37.59;100035.75;5044542;28;20200;-65
2023/05/02 08:55:07;;;;;;;0.40;0.40;;;;;;;21.76;36.60;100033.06;5047504;28;20596;-65
2023/05/02 08:57:34;;;;;;;0.40;0.40;;;;;;;21.82;37.96;100026.59;5048804;28;20205;-66
2023/05/02 09:00:00;;;;;;;0.47;0.47;;;;;;;21.97;38.50;100031.66;5046131;28;20592;-66
2023/05/02 09:02:47;;;;;;;0.37;0.37;;;;;;;21.96;38.32;100024.78;5046544;28;20200;-66
2023/05/02 09:05:19;;;;;;;0.43;0.43;;;;;;;21.93;37.90;100021.53;5041959;28;20224;-66
2023/05/02 09:07:49;;;;;;;0.50;0.50;;;;;;;21.99;38.32;100028.94;5046804;28;20231;-65
2023/05/02 09:10:15;;;;;;;0.30;0.30;;;;;;;22.12;36.41;99987.19;5046778;28;20493;-62
2023/05/02 09:12:42;;;;;;;0.40;0.40;;;;;;;22.36;37.36;100008.97;5049439;28;20200;-63
2023/05/02 09:15:10;;;;;;;0.40;0.40;;;;;;;22.35;37.73;100007.34;5048948;28;20209;-62
2023/05/02 09:17:42;;;;;;;0.33;0.33;;;;;;;22.34;35.17;99997.81;5049122;28;20581;-63
2023/05/02 09:20:11;;;;;;;0.40;0.40;;;;;;;22.35;37.45;99989.88;5047401;28;20284;-63
2023/05/02 09:22:38;;;;;;;0.40;0.40;;;;;;;22.40;36.03;100002.63;5045435;28;20296;-63
2023/05/02 09:25:08;;;;;;;0.30;0.30;;;;;;;22.41;34.81;100004.28;5046807;28;20220;-64
2023/05/02 09:27:54;;;;;;;0.40;0.40;;;;;;;22.25;34.64;99998.47;5048649;28;20204;-63
2023/05/02 09:30:22;;;;;;;0.40;0.40;;;;;;;22.29;37.03;99997.31;5049191;28;20745;-64
2023/05/02 09:32:51;;;;;;;0.37;0.37;;;;;;;22.02;35.94;99975.69;5048053;28;20204;-63
2023/05/02 09:35:22;;;;;;;0.37;0.37;;;;;;;22.14;36.32;99985.28;5050456;28;20196;-63
2023/05/02 09:37:51;;;;;;;0.33;0.33;;;;;;;22.11;36.38;99986.34;5050164;28;20201;-63
2023/05/02 09:40:20;;;;;;;0.40;0.40;;;;;;;22.19;37.34;99977.97;5050156;28;20205;-63
2023/05/02 09:42:47;;;;;;;0.30;0.30;;;;;;;22.21;36.06;99976.09;5049939;28;20660;-64
2023/05/02 09:45:21;;;;;;;0.40;0.40;;;;;;;22.18;37.07;99977.16;5049941;28;20222;-62
2023/05/02 09:47:48;;;;;;;0.33;0.33;;;;;;;22.17;36.89;99966.78;5049572;28;20214;-63
2023/05/02 09:50:33;;;;;;;0.40;0.40;;;;;;;22.23;37.95;99964.59;5050268;28;20688;-63
2023/05/02 09:53:04;;;;;;;0.40;0.40;;;;;;;22.21;35.99;99965.66;5049426;28;20209;-63
2023/05/02 09:55:32;;;;;;;0.40;0.40;;;;;;;22.26;36.12;99955.72;5047294;28;20204;-63
2023/05/02 09:57:59;;;;;;;0.40;0.40;;;;;;;22.29;36.87;99952.91;5049225;28;20201;-63
2023/05/02 10:00:43;;;;;;;0.37;0.37;;;;;;;22.24;35.83;99963.66;5048796;28;20205;-63
2023/05/02 10:03:10;;;;;;;0.30;0.30;;;;;;;22.15;37.63;99966.06;5048499;28;20208;-64
2023/05/02 10:05:38;;;;;;;0.40;0.40;;;;;;;22.23;38.14;99951.53;5049566;28;20335;-66
2023/05/02 10:08:06;;;;;;;0.50;0.50;;;;;;;22.52;36.71;99946.88;5049857;28;20207;-63
2023/05/02 10:10:37;;;;;;;0.60;0.60;;;;;;;22.62;38.20;99966.19;5050114;28;20208;-63
2023/05/02 10:13:05;;;;;;;0.53;0.53;;;;;;;22.45;37.19;99948.28;5050069;28;20205;-63
2023/05/02 10:15:33;;;;;;;0.50;0.50;;;;;;;22.42;36.48;99956.34;5049786;28;20205;-62
2023/05/02 10:18:01;;;;;;;0.50;0.50;;;;;;;22.21;36.29;99945.59;5050055;28;20647;-63
2023/05/02 10:20:32;;;;;;;0.30;0.30;;;;;;;22.23;35.93;99958.56;5048645;28;20200;-63
2023/05/02 10:23:00;;;;;;;0.40;0.40;;;;;;;22.31;36.55;99957.06;5049712;28;20204;-63
2023/05/02 10:25:28;;;;;;;0.67;0.67;;;;;;;22.57;35.99;99947.41;5049932;28;20248;-64
2023/05/02 10:27:58;;;;;;;0.40;0.40;;;;;;;22.58;35.57;99958.69;5050629;28;20676;-63
2023/05/02 10:30:26;;;;;;;0.50;0.50;;;;;;;22.42;35.00;99944.09;5050051;28;20228;-64
2023/05/02 10:32:53;;;;;;;0.40;0.40;;;;;;;22.65;36.25;99946.88;5045843;28;20197;-63
2023/05/02 10:35:21;;;;;;;0.30;0.30;;;;;;;22.49;35.48;99949.72;5049312;28;20296;-62
2023/05/02 10:37:48;;;;;;;0.40;0.40;;;;;;;22.57;36.57;99926.50;5049893;28;20206;-64
2023/05/02 10:40:15;;;;;;;0.50;0.50;;;;;;;22.68;34.20;99938.84;5050052;28;20522;-62
2023/05/02 10:42:45;;;;;;;0.30;0.30;;;;;;;22.65;34.41;99934.63;5049770;28;20655;-63
2023/05/02 10:45:30;;;;;;;0.37;0.37;;;;;;;22.58;34.66;99943.84;5049606;28;20224;-63
2023/05/02 10:48:15;;;;;;;0.40;0.40;;;;;;;22.68;35.59;99931.81;5048995;28;20647;-63
2023/05/02 10:50:47;;;;;;;0.60;0.60;;;;;;;22.72;36.54;99933.28;5050066;28;20250;-63
2023/05/02 10:53:31;;;;;;;0.30;0.30;;;;;;;22.62;36.21;99929.59;5050173;28;20576;-63
2023/05/02 10:56:16;;;;;;;0.50;0.50;;;;;;;22.64;34.83;99927.75;5050176;28;20264;-62
2023/05/02 10:58:44;;;;;;;0.40;0.40;;;;;;;22.73;36.77;99924.50;5048799;28;20274;-62
2023/05/02 11:01:36;;;;;;;0.40;0.40;;;;;;;22.83;35.35;99922.06;5051668;28;20250;-62
2023/05/02 11:04:05;;;;;;;0.40;0.40;;;;;;;22.74;35.77;99928.78;5048502;28;20224;-63
2023/05/02 11:06:34;;;;;;;0.40;0.40;;;;;;;22.71;35.19;99926.41;5052742;28;20358;-62
2023/05/02 11:09:34;;;;;;;0.67;0.67;;;;;;;22.81;36.56;99919.53;5053224;28;20201;-63
2023/05/02 11:12:04;;;;;;;0.40;0.40;;;;;;;22.73;35.20;99890.50;5052903;28;20205;-62
2023/05/02 11:14:51;;;;;;;0.30;0.30;;;;;;;22.95;35.07;99921.16;5052961;28;20681;-64
2023/05/02 11:17:20;;;;;;;1.70;0.67;;;;;;;22.98;34.92;99913.91;5053655;28;20262;-63
2023/05/02 11:20:24;;;;;;;0.40;0.40;;;;;;;22.89;36.53;99900.69;5053262;28;20288;-63
2023/05/02 11:22:51;;;;;;;0.40;0.40;;;;;;;23.09;36.71;99896.59;5052898;28;20238;-63
2023/05/02 11:25:36;;;;;;;0.40;0.40;;;;;;;23.17;35.87;99897.69;5053267;28;20228;-63
2023/05/02 11:28:04;;;;;;;0.30;0.30;;;;;;;23.22;34.45;99913.06;5053045;28;20204;-63
2023/05/02 11:30:42;;;;;;;0.20;0.20;;;;;;;23.19;34.54;99902.84;5053131;28;20205;-63
2023/05/02 11:33:16;;;;;;;0.47;0.47;;;;;;;22.92;34.10;99901.31;5052329;28;20557;-62
2023/05/02 11:35:44;;;;;;;0.40;0.40;;;;;;;22.85;34.72;99887.00;5051776;28;20638;-63
2023/05/02 11:38:13;;;;;;;0.40;0.40;;;;;;;22.72;34.09;99894.06;5052683;28;20197;-62